Time;durP1;ratioP1;P1;durP2;ratioP2;P2;SDS_P1;SDS_P2;PMS_P1;PMS_P2;Temp;Humidity;BMP_temperature;BMP_pressure;BME280_temperature;BME280_humidity;BME280_pressure;Samples;Min_cycle;Max_cycle;Signal;HPM_P1;HPM_P2
2020/12/06 00:02:22;;;;;;;8.65;6.08;;;;;;;10.39;60.18;95889.27;1745940;80;21130;-85
2020/12/06 00:04:48;;;;;;;6.62;5.28;;;;;;;10.35;60.02;95889.36;1738740;80;21116;-83
2020/12/06 00:07:15;;;;;;;6.05;4.10;;;;;;;10.32;60.40;95888.45;1730386;81;21125;-85
2020/12/06 00:09:41;;;;;;;6.00;4.87;;;;;;;10.23;60.34;95883.39;1739581;80;21340;-84
2020/12/06 00:12:07;;;;;;;8.05;5.72;;;;;;;10.20;60.66;95894.14;1698604;83;21426;-85
2020/12/06 00:14:33;;;;;;;5.80;4.22;;;;;;;10.16;60.56;95898.61;1709202;82;21105;-84
2020/12/06 00:16:59;;;;;;;5.28;4.17;;;;;;;10.15;60.18;95887.92;1697355;82;21126;-84
2020/12/06 00:19:25;;;;;;;6.12;4.53;;;;;;;10.20;60.62;95903.72;1690091;84;22165;-84
2020/12/06 00:21:51;;;;;;;6.62;4.42;;;;;;;10.20;60.79;95898.53;1685065;82;21130;-85
2020/12/06 00:24:17;;;;;;;6.78;4.75;;;;;;;10.16;60.93;95911.59;1695843;84;21499;-84
2020/12/06 00:26:43;;;;;;;5.20;4.70;;;;;;;10.04;60.80;95910.51;1711554;82;21264;-85
2020/12/06 00:29:09;;;;;;;6.37;5.05;;;;;;;9.95;61.11;95913.76;1693736;84;21126;-85
2020/12/06 00:31:35;;;;;;;8.25;5.28;;;;;;;9.79;61.17;95925.71;1703283;83;21115;-84
2020/12/06 00:34:01;;;;;;;6.12;5.42;;;;;;;9.66;61.66;95921.20;1692016;84;21098;-84
2020/12/06 00:36:27;;;;;;;8.50;6.05;;;;;;;9.55;61.79;95935.47;1700580;83;21135;-84
2020/12/06 00:38:53;;;;;;;5.50;4.20;;;;;;;9.49;62.07;95928.45;1695253;83;21240;-85
2020/12/06 00:41:19;;;;;;;5.62;5.00;;;;;;;9.39;62.10;95924.55;1695699;83;21240;-85
2020/12/06 00:43:46;;;;;;;5.85;4.92;;;;;;;9.25;62.51;95937.87;1690769;83;21110;-84
2020/12/06 00:46:12;;;;;;;7.78;4.58;;;;;;;9.02;62.75;95928.96;1672229;84;21369;-84
2020/12/06 00:48:38;;;;;;;6.55;4.60;;;;;;;8.93;63.21;95911.91;1734647;82;21862;-84
2020/12/06 00:51:04;;;;;;;6.65;5.10;;;;;;;8.81;63.42;95927.62;1737967;81;21277;-84
2020/12/06 00:53:30;;;;;;;7.30;5.03;;;;;;;8.70;63.87;95932.77;1737636;82;21115;-84
2020/12/06 00:55:56;;;;;;;5.70;5.05;;;;;;;8.56;64.11;95931.00;1725900;81;21123;-84
2020/12/06 00:58:23;;;;;;;5.87;4.35;;;;;;;8.45;64.37;95936.62;1720504;81;21118;-85
2020/12/06 01:00:49;;;;;;;6.28;5.47;;;;;;;8.39;64.79;95929.09;1717164;81;21119;-84
2020/12/06 01:03:14;;;;;;;6.95;5.10;;;;;;;8.30;64.98;95923.18;1727092;81;21118;-84
2020/12/06 01:05:40;;;;;;;8.08;5.53;;;;;;;8.23;65.11;95926.64;1747554;81;21151;-84
2020/12/06 01:08:07;;;;;;;6.85;5.25;;;;;;;8.13;65.45;95922.55;1752751;81;21099;-84
2020/12/06 01:10:33;;;;;;;6.05;4.70;;;;;;;8.04;65.53;95936.53;1755475;81;21376;-85
2020/12/06 01:12:59;;;;;;;4.67;4.08;;;;;;;8.24;65.85;95925.16;1749924;81;21083;-84
2020/12/06 01:15:26;;;;;;;5.70;4.60;;;;;;;8.34;65.63;95920.56;1758379;81;21138;-84
2020/12/06 01:17:53;;;;;;;5.12;4.53;;;;;;;8.34;65.72;95919.27;1757601;81;21125;-84
2020/12/06 01:20:19;;;;;;;5.92;5.00;;;;;;;8.27;65.95;95911.06;1746126;81;21126;-84
2020/12/06 01:22:45;;;;;;;5.58;4.80;;;;;;;8.10;65.93;95928.05;1757062;81;21115;-84
2020/12/06 01:25:11;;;;;;;7.92;6.58;;;;;;;8.31;66.52;95916.22;1751959;81;21377;-84
2020/12/06 01:27:37;;;;;;;6.78;5.03;;;;;;;8.73;66.08;95914.27;1752628;80;21111;-84
2020/12/06 01:30:05;;;;;;;5.40;4.42;;;;;;;8.83;65.70;95923.06;1753978;81;21111;-84
2020/12/06 01:32:32;;;;;;;7.25;5.17;;;;;;;8.81;65.26;95913.38;1760798;80;21126;-84
2020/12/06 01:35:03;;;;;;;5.35;4.65;;;;;;;8.79;65.09;95904.99;1688304;84;21420;-84
2020/12/06 01:37:29;;;;;;;6.75;5.33;;;;;;;8.72;65.21;95913.47;1758139;81;21232;-85
2020/12/06 01:39:55;;;;;;;5.17;4.40;;;;;;;8.70;65.20;95908.16;1749211;81;21111;-84
2020/12/06 01:42:22;;;;;;;8.50;4.80;;;;;;;8.89;65.32;95908.08;1758475;81;21082;-84
2020/12/06 01:44:48;;;;;;;6.55;4.30;;;;;;;8.98;65.06;95912.98;1753670;81;21079;-84
2020/12/06 01:47:14;;;;;;;6.78;4.22;;;;;;;9.02;64.88;95916.80;1730273;81;21126;-84
2020/12/06 01:49:40;;;;;;;5.20;4.70;;;;;;;9.12;64.94;95913.93;1753037;81;21258;-85
2020/12/06 01:52:07;;;;;;;4.95;3.40;;;;;;;9.07;64.47;95909.77;1753279;81;21408;-84
2020/12/06 01:54:34;;;;;;;6.87;5.03;;;;;;;9.09;64.12;95903.10;1719210;81;21120;-85
2020/12/06 01:57:03;;;;;;;9.78;7.22;;;;;;;9.31;64.62;95903.45;1762297;81;21110;-86
2020/12/06 01:59:29;;;;;;;35.90;17.20;;;;;;;9.35;64.36;95907.27;1751758;81;21073;-84
2020/12/06 02:02:01;;;;;;;15.35;8.48;;;;;;;9.31;64.14;95921.09;1762451;80;21158;-84
2020/12/06 02:04:29;;;;;;;6.75;4.95;;;;;;;9.37;64.06;95900.09;1687630;84;21707;-85
2020/12/06 02:06:55;;;;;;;7.28;4.90;;;;;;;9.50;63.84;95889.05;1709395;83;21400;-84
2020/12/06 02:09:22;;;;;;;7.25;5.33;;;;;;;9.63;63.36;95880.89;1709602;83;21558;-84
2020/12/06 02:11:48;;;;;;;4.65;3.80;;;;;;;9.78;63.50;95896.37;1707594;83;21426;-84
2020/12/06 02:14:14;;;;;;;19.37;11.75;;;;;;;9.72;63.52;95878.94;1710685;83;21335;-84
2020/12/06 02:16:40;;;;;;;11.43;7.00;;;;;;;9.60;63.23;95887.75;1704861;83;21139;-85
2020/12/06 02:19:07;;;;;;;7.22;5.58;;;;;;;9.53;63.44;95888.67;1709728;83;21150;-85
2020/12/06 02:21:41;;;;;;;11.18;6.62;;;;;;;9.51;63.82;95870.70;1720855;83;21161;-84
2020/12/06 02:24:11;;;;;;;13.62;8.75;;;;;;;9.48;63.89;95876.77;1701849;83;21260;-84
2020/12/06 02:26:44;;;;;;;6.75;5.00;;;;;;;9.55;63.83;95885.39;1709807;83;21146;-84
2020/12/06 02:29:11;;;;;;;7.65;5.67;;;;;;;9.63;63.79;95887.37;1701171;83;21518;-84
2020/12/06 02:31:38;;;;;;;6.70;4.87;;;;;;;9.77;63.42;95878.40;1701579;83;21299;-84
2020/12/06 02:34:05;;;;;;;6.42;4.62;;;;;;;9.88;63.05;95881.75;1690484;84;21106;-84
2020/12/06 02:36:31;;;;;;;4.78;4.35;;;;;;;10.01;62.70;95868.86;1747442;81;21114;-85
2020/12/06 02:38:57;;;;;;;5.28;3.98;;;;;;;10.07;62.77;95882.38;1754803;81;21066;-84
2020/12/06 02:41:37;;;;;;;5.72;4.70;;;;;;;10.11;62.52;95869.34;1755051;81;21124;-84
2020/12/06 02:44:03;;;;;;;6.05;4.80;;;;;;;10.18;62.58;95887.04;1751620;81;21115;-84
2020/12/06 02:46:30;;;;;;;5.45;4.08;;;;;;;10.16;62.53;95888.23;1763782;81;21955;-84
2020/12/06 02:48:56;;;;;;;5.85;4.78;;;;;;;10.05;61.98;95877.06;1747848;81;21326;-85
2020/12/06 02:51:22;;;;;;;5.80;5.10;;;;;;;10.17;62.25;95879.44;1761189;81;21147;-85
2020/12/06 02:53:47;;;;;;;5.75;4.35;;;;;;;10.15;62.59;95884.83;1685452;84;21249;-84
2020/12/06 02:56:13;;;;;;;5.55;4.90;;;;;;;10.10;62.20;95887.70;1704740;83;21102;-84
2020/12/06 02:58:39;;;;;;;6.08;4.55;;;;;;;10.08;62.64;95881.88;1691982;83;21126;-84
2020/12/06 03:01:05;;;;;;;6.00;5.35;;;;;;;9.87;62.80;95895.22;1709446;83;21138;-84
2020/12/06 03:03:31;;;;;;;6.53;4.75;;;;;;;9.72;62.98;95891.11;1686425;83;21340;-84
2020/12/06 03:05:57;;;;;;;6.35;5.17;;;;;;;9.51;63.21;95881.57;1679427;84;21137;-84
2020/12/06 03:08:23;;;;;;;7.08;3.98;;;;;;;9.36;63.59;95889.42;1746163;81;21112;-84
2020/12/06 03:10:49;;;;;;;4.90;4.40;;;;;;;9.24;63.94;95894.29;1744024;81;21344;-84
2020/12/06 03:13:15;;;;;;;4.90;4.20;;;;;;;9.13;64.04;95892.20;1759743;81;21283;-84
2020/12/06 03:15:41;;;;;;;5.97;5.08;;;;;;;9.02;64.35;95901.26;1764893;81;21119;-84
2020/12/06 03:18:07;;;;;;;7.45;5.17;;;;;;;8.80;64.98;95900.92;1685248;84;21094;-84
2020/12/06 03:20:33;;;;;;;5.05;4.30;;;;;;;8.80;64.98;95900.92;1706572;83;21141;-84
2020/12/06 03:22:59;;;;;;;5.90;4.50;;;;;;;8.84;65.14;95900.86;1677827;84;21113;-85
2020/12/06 03:25:26;;;;;;;9.45;5.30;;;;;;;8.81;65.39;95905.12;1760720;81;21262;-83
2020/12/06 03:27:52;;;;;;;6.67;4.78;;;;;;;8.68;65.47;95893.30;1756926;81;21078;-84
2020/12/06 03:30:18;;;;;;;7.65;4.70;;;;;;;8.56;65.69;95897.33;1742821;81;21131;-84
2020/12/06 03:32:47;;;;;;;5.67;5.10;;;;;;;8.43;65.91;95901.36;1759366;80;21076;-84
2020/12/06 03:35:13;;;;;;;5.17;4.55;;;;;;;8.29;65.99;95904.72;1760084;80;21186;-84
2020/12/06 03:37:39;;;;;;;5.28;4.65;;;;;;;8.20;66.20;95903.70;1762339;80;21126;-84
2020/12/06 03:40:05;;;;;;;5.45;4.72;;;;;;;8.16;66.52;95905.86;1767607;80;21130;-85
2020/12/06 03:42:31;;;;;;;5.67;4.87;;;;;;;8.13;66.68;95902.30;1776203;80;21336;-86
2020/12/06 03:44:57;;;;;;;6.15;4.85;;;;;;;8.10;66.71;95903.47;1724662;80;21161;-84
2020/12/06 03:47:23;;;;;;;6.40;5.17;;;;;;;8.18;66.90;95906.97;1769386;80;21141;-84
2020/12/06 03:49:50;;;;;;;6.47;5.15;;;;;;;8.17;67.01;95907.95;1759632;80;21090;-84
2020/12/06 03:52:15;;;;;;;4.92;4.42;;;;;;;8.09;67.16;95904.45;1777018;80;21114;-85
2020/12/06 03:54:42;;;;;;;7.15;5.65;;;;;;;8.01;67.36;95913.60;1765282;80;21242;-84
2020/12/06 03:57:08;;;;;;;6.03;5.15;;;;;;;8.00;67.55;95912.00;1762930;80;21973;-84
2020/12/06 03:59:34;;;;;;;6.78;4.70;;;;;;;7.96;67.69;95912.02;1768709;80;21348;-84
2020/12/06 04:02:00;;;;;;;4.60;4.20;;;;;;;7.93;67.81;95914.96;1779739;80;21169;-84
2020/12/06 04:04:26;;;;;;;4.92;4.05;;;;;;;7.98;67.90;95917.04;1767328;80;21868;-84
2020/12/06 04:06:52;;;;;;;7.47;4.85;;;;;;;7.97;67.85;95909.77;1768910;80;21133;-84
2020/12/06 04:09:18;;;;;;;6.67;4.78;;;;;;;8.00;67.81;95916.37;1772936;80;21120;-84
2020/12/06 04:11:44;;;;;;;7.08;5.47;;;;;;;8.05;67.92;95915.34;1767160;80;21118;-84
2020/12/06 04:14:10;;;;;;;5.42;4.90;;;;;;;8.09;67.94;95917.88;1767270;80;21088;-84
2020/12/06 04:16:36;;;;;;;6.15;5.33;;;;;;;8.08;67.95;95907.22;1764927;80;21390;-84
2020/12/06 04:19:02;;;;;;;7.05;5.25;;;;;;;8.05;67.99;95920.02;1767086;80;21114;-84
2020/12/06 04:21:28;;;;;;;5.87;4.90;;;;;;;8.04;68.08;95916.32;1771886;80;21244;-84
2020/12/06 04:23:55;;;;;;;5.83;4.53;;;;;;;8.01;68.12;95929.13;1772157;80;21221;-84
2020/12/06 04:26:21;;;;;;;5.58;5.00;;;;;;;8.08;68.41;95929.21;1771070;80;21364;-85
2020/12/06 04:28:47;;;;;;;5.45;4.08;;;;;;;8.14;68.15;95929.82;1760585;80;21396;-84
2020/12/06 04:31:13;;;;;;;5.85;4.80;;;;;;;8.14;68.15;95946.64;1765153;80;21089;-85
2020/12/06 04:33:39;;;;;;;5.85;5.10;;;;;;;8.15;68.21;95940.48;1750423;80;21111;-84
2020/12/06 04:36:05;;;;;;;7.35;5.00;;;;;;;8.16;68.16;95936.91;1758753;81;21236;-84
2020/12/06 04:38:31;;;;;;;5.75;4.37;;;;;;;8.16;68.42;95942.58;1760783;81;21244;-84
2020/12/06 04:40:58;;;;;;;5.47;4.97;;;;;;;8.09;68.36;95935.99;1757699;81;21082;-85
2020/12/06 04:43:24;;;;;;;5.78;5.17;;;;;;;8.06;68.45;95938.94;1751945;80;21113;-84
2020/12/06 04:45:50;;;;;;;6.37;5.00;;;;;;;8.17;68.53;95947.58;1762516;81;21098;-84
2020/12/06 04:48:27;;;;;;;5.87;4.90;;;;;;;8.17;68.53;95947.58;1750888;81;21102;-84
2020/12/06 04:50:54;;;;;;;24.27;13.22;;;;;;;8.13;68.49;95934.66;1745613;81;21158;-84
2020/12/06 04:53:22;;;;;;;5.12;4.25;;;;;;;8.13;68.43;95932.89;1754447;81;21150;-84
2020/12/06 04:55:49;;;;;;;7.95;5.65;;;;;;;8.14;68.50;95929.82;1756042;81;21118;-85
2020/12/06 04:58:19;;;;;;;3.15;2.70;;;;;;;8.12;68.35;95936.92;1752473;80;21402;-84
2020/12/06 05:00:46;;;;;;;5.97;4.78;;;;;;;8.20;68.34;95939.45;1747292;81;21174;-84
2020/12/06 05:03:12;;;;;;;6.40;5.65;;;;;;;8.54;68.47;95931.17;1756632;81;21119;-84
2020/12/06 05:05:40;;;;;;;7.17;5.45;;;;;;;8.65;68.14;95928.63;1755627;80;21253;-84
2020/12/06 05:08:10;;;;;;;6.97;5.45;;;;;;;8.64;67.86;95930.42;1750221;81;21115;-84
2020/12/06 05:10:40;;;;;;;5.25;4.60;;;;;;;8.68;68.02;95921.80;1748366;81;21117;-84
2020/12/06 05:13:07;;;;;;;4.28;3.87;;;;;;;8.64;67.77;95921.85;1749635;81;21150;-84
2020/12/06 05:15:33;;;;;;;5.47;4.78;;;;;;;8.61;67.91;95904.05;1761904;81;21114;-84
2020/12/06 05:17:59;;;;;;;5.70;5.10;;;;;;;8.59;67.72;95904.24;1755393;81;21114;-84
2020/12/06 05:20:26;;;;;;;4.75;4.10;;;;;;;8.63;67.65;95908.59;1683293;84;21157;-85
2020/12/06 05:22:53;;;;;;;4.85;4.35;;;;;;;8.70;67.37;95910.76;1708289;83;21263;-84
2020/12/06 05:25:19;;;;;;;6.53;5.37;;;;;;;8.98;66.82;95909.59;1700895;83;21162;-85
2020/12/06 05:27:45;;;;;;;4.62;4.05;;;;;;;9.15;67.05;95925.72;1706852;83;21154;-84
2020/12/06 05:30:11;;;;;;;5.53;4.37;;;;;;;9.28;66.70;95918.88;1711592;83;21367;-84
2020/12/06 05:32:38;;;;;;;4.92;4.42;;;;;;;9.33;66.35;95917.83;1696930;83;21153;-84
2020/12/06 05:35:05;;;;;;;3.85;3.45;;;;;;;9.31;66.27;95926.28;1708255;83;21130;-84
2020/12/06 05:37:31;;;;;;;5.58;4.97;;;;;;;9.29;65.52;95926.16;1697966;83;21117;-84
2020/12/06 05:40:06;;;;;;;5.33;4.62;;;;;;;9.31;66.03;95922.89;1698170;83;21142;-85
2020/12/06 05:42:34;;;;;;;4.55;3.83;;;;;;;9.20;66.08;95924.66;1704894;83;21153;-84
2020/12/06 05:45:00;;;;;;;4.70;3.60;;;;;;;9.04;66.10;95910.14;1702254;83;21110;-84
2020/12/06 05:47:28;;;;;;;5.25;4.00;;;;;;;8.99;66.16;95915.88;1708916;83;21157;-85
2020/12/06 05:49:57;;;;;;;5.78;3.80;;;;;;;9.03;66.16;95912.42;1705734;83;21491;-85
2020/12/06 05:52:25;;;;;;;3.58;3.17;;;;;;;9.08;66.13;95904.89;1711485;83;21154;-84
2020/12/06 05:54:51;;;;;;;5.15;4.15;;;;;;;9.11;65.29;95894.64;1701044;83;21256;-84
2020/12/06 05:57:17;;;;;;;3.98;3.40;;;;;;;9.20;66.02;95900.84;1705268;83;21134;-84
2020/12/06 05:59:44;;;;;;;4.53;3.70;;;;;;;9.17;65.66;95903.80;1693679;83;21106;-84
2020/12/06 06:02:10;;;;;;;4.47;3.80;;;;;;;9.19;65.68;95904.91;1708439;83;21152;-84
2020/12/06 06:04:40;;;;;;;4.20;3.77;;;;;;;9.26;65.57;95911.75;1690388;83;21118;-84
2020/12/06 06:07:13;;;;;;;5.33;4.50;;;;;;;9.34;65.45;95900.48;1744823;81;21133;-84
2020/12/06 06:09:42;;;;;;;7.92;5.53;;;;;;;9.30;65.55;95913.51;1745377;81;21111;-84
2020/12/06 06:12:23;;;;;;;7.95;5.80;;;;;;;9.18;65.34;95901.52;1740615;81;21143;-85
2020/12/06 06:14:53;;;;;;;4.00;3.35;;;;;;;9.15;65.50;95901.89;1741861;81;21079;-84
2020/12/06 06:17:20;;;;;;;4.87;3.67;;;;;;;9.06;65.24;95909.95;1721255;81;21252;-84
2020/12/06 06:19:46;;;;;;;3.95;3.35;;;;;;;9.14;65.04;95915.04;1718841;82;21094;-84
2020/12/06 06:22:13;;;;;;;2.50;2.27;;;;;;;9.25;65.18;95921.02;1725098;81;21173;-85
2020/12/06 06:24:39;;;;;;;6.62;4.95;;;;;;;9.28;64.82;95918.08;1725137;81;21118;-84
2020/12/06 06:27:05;;;;;;;5.83;5.17;;;;;;;9.35;65.14;95927.20;1730032;80;21106;-84
2020/12/06 06:29:31;;;;;;;5.17;4.05;;;;;;;9.30;64.96;95911.72;1740876;82;21123;-84
2020/12/06 06:31:57;;;;;;;3.02;2.70;;;;;;;9.40;64.71;95916.58;1691936;82;21107;-85
2020/12/06 06:34:25;;;;;;;4.78;4.30;;;;;;;9.55;63.94;95913.42;1712385;81;21341;-85
2020/12/06 06:36:52;;;;;;;4.78;3.95;;;;;;;9.64;64.26;95920.59;1725432;82;21333;-85
2020/12/06 06:39:22;;;;;;;5.42;4.55;;;;;;;9.71;64.16;95937.01;1732295;81;21103;-84
2020/12/06 06:42:10;;;;;;;5.85;4.20;;;;;;;9.77;63.61;95939.37;1736884;81;21114;-84
2020/12/06 06:44:40;;;;;;;4.35;3.95;;;;;;;9.92;63.37;95946.08;1715388;81;21111;-84
2020/12/06 06:47:09;;;;;;;5.45;4.17;;;;;;;9.99;63.67;95952.61;1723550;82;21146;-83
2020/12/06 06:49:55;;;;;;;3.72;3.02;;;;;;;10.02;63.34;95950.93;1719660;81;21249;-84
2020/12/06 06:52:27;;;;;;;4.85;3.87;;;;;;;10.03;63.01;95949.94;1725758;81;21134;-84
2020/12/06 06:54:56;;;;;;;5.28;4.05;;;;;;;10.00;63.39;95939.14;1711612;81;21154;-84
2020/12/06 06:57:23;;;;;;;5.85;4.03;;;;;;;9.91;63.23;95955.33;1732538;82;21560;-84
2020/12/06 06:59:57;;;;;;;5.42;3.95;;;;;;;9.88;63.33;95953.91;1712049;82;21107;-84
2020/12/06 07:02:33;;;;;;;3.98;3.55;;;;;;;9.91;63.33;95951.44;1710977;82;21098;-84
2020/12/06 07:05:09;;;;;;;4.97;4.20;;;;;;;9.91;63.39;95957.92;1721211;82;21233;-84
2020/12/06 07:07:49;;;;;;;4.35;3.90;;;;;;;9.84;63.49;95954.48;1707748;82;21115;-84
2020/12/06 07:10:23;;;;;;;3.58;3.27;;;;;;;9.81;63.57;95944.48;1721660;81;21075;-84
2020/12/06 07:13:00;;;;;;;4.67;4.05;;;;;;;9.82;63.54;95945.59;1732348;82;21107;-85
2020/12/06 07:15:27;;;;;;;4.37;3.47;;;;;;;9.83;63.59;95940.70;1729943;82;21114;-84
2020/12/06 07:17:55;;;;;;;4.20;3.35;;;;;;;9.89;63.34;95937.84;1706984;82;21141;-84
2020/12/06 07:20:23;;;;;;;5.10;4.33;;;;;;;9.93;63.32;95931.31;1729069;81;21083;-84
2020/12/06 07:22:49;;;;;;;4.37;3.40;;;;;;;9.90;63.37;95935.06;1732874;82;21398;-84
2020/12/06 07:25:16;;;;;;;4.12;3.72;;;;;;;10.01;63.12;95927.27;1738431;81;21150;-84
2020/12/06 07:27:43;;;;;;;5.45;3.98;;;;;;;10.10;63.01;95926.14;1745780;80;21110;-84
2020/12/06 07:30:11;;;;;;;4.45;3.15;;;;;;;10.16;63.02;95925.38;1714308;82;21265;-85
2020/12/06 07:32:37;;;;;;;4.12;3.58;;;;;;;10.19;62.64;95920.30;1738454;81;21147;-84
2020/12/06 07:35:05;;;;;;;3.80;2.80;;;;;;;10.22;62.62;95903.86;1753945;80;21305;-84
2020/12/06 07:37:31;;;;;;;4.42;3.55;;;;;;;10.22;61.55;95903.86;1730212;80;21118;-84
2020/12/06 07:39:57;;;;;;;4.08;2.42;;;;;;;10.32;62.58;95902.23;1749930;80;21110;-84
2020/12/06 07:42:27;;;;;;;4.75;4.22;;;;;;;10.33;62.11;95901.73;1721637;82;21333;-84
2020/12/06 07:44:57;;;;;;;4.72;3.92;;;;;;;10.37;61.94;95901.65;1745255;82;21112;-85
2020/12/06 07:47:23;;;;;;;4.85;3.50;;;;;;;10.50;62.14;95899.93;1736760;82;21138;-83
2020/12/06 07:49:59;;;;;;;4.33;3.15;;;;;;;10.59;61.26;95907.58;1745330;82;21122;-84
2020/12/06 07:52:30;;;;;;;3.80;2.83;;;;;;;10.63;61.62;95897.89;1724463;80;21122;-84
2020/12/06 07:55:09;;;;;;;4.70;3.05;;;;;;;10.69;60.68;95900.20;1729535;80;21432;-84
2020/12/06 07:57:51;;;;;;;3.92;3.52;;;;;;;10.78;61.39;95916.75;1749207;80;21130;-84
2020/12/06 08:00:24;;;;;;;4.50;3.12;;;;;;;10.79;60.57;95914.95;1747546;82;21233;-86
2020/12/06 08:02:58;;;;;;;4.22;3.20;;;;;;;10.88;60.94;95920.77;1720109;80;21275;-87
2020/12/06 08:05:28;;;;;;;4.30;3.50;;;;;;;10.94;60.77;95918.70;1745275;80;21416;-86
2020/12/06 08:08:00;;;;;;;3.67;2.85;;;;;;;10.97;61.01;95931.30;1737598;80;21109;-86
2020/12/06 08:10:26;;;;;;;4.28;3.30;;;;;;;10.94;60.64;95920.80;1746346;80;21134;-83
2020/12/06 08:12:54;;;;;;;3.67;3.15;;;;;;;10.98;60.46;95918.61;1739206;80;21240;-84
2020/12/06 08:15:25;;;;;;;4.65;3.37;;;;;;;11.00;60.45;95921.81;1750924;81;21106;-83
2020/12/06 08:17:52;;;;;;;4.58;4.17;;;;;;;11.02;60.14;95933.62;1735779;80;21110;-82
2020/12/06 08:20:23;;;;;;;4.47;3.65;;;;;;;11.05;60.79;95922.02;1745489;80;21113;-82
2020/12/06 08:22:58;;;;;;;3.70;2.47;;;;;;;11.07;60.76;95925.25;1734014;80;21114;-83
2020/12/06 08:25:31;;;;;;;3.80;3.37;;;;;;;11.09;60.47;95924.05;1742312;80;21110;-83
2020/12/06 08:28:04;;;;;;;6.03;3.35;;;;;;;11.11;60.18;95918.16;1732872;82;21130;-83
2020/12/06 08:30:30;;;;;;;4.53;3.87;;;;;;;11.19;59.38;95934.06;1729952;82;21340;-84
2020/12/06 08:33:03;;;;;;;4.47;3.70;;;;;;;11.26;60.34;95936.20;1727071;80;21117;-82
2020/12/06 08:35:47;;;;;;;;;;;;;;;11.28;60.44;95936.00;1729683;80;21429;-83
2020/12/06 08:38:22;;;;;;;4.22;3.05;;;;;;;11.28;59.51;95929.00;1717236;80;20176;-83
2020/12/06 08:41:04;;;;;;;3.37;3.08;;;;;;;11.35;59.79;95936.80;1739640;81;21103;-82
2020/12/06 08:44:03;;;;;;;4.33;3.20;;;;;;;11.41;59.75;95929.03;1721702;82;21317;-83
2020/12/06 08:46:30;;;;;;;4.65;3.25;;;;;;;11.43;60.32;95922.33;1732480;81;21079;-82
2020/12/06 08:49:00;;;;;;;3.47;2.67;;;;;;;11.39;59.69;95921.93;1714185;82;21111;-83
2020/12/06 08:51:34;;;;;;;4.35;3.58;;;;;;;11.41;59.31;95930.34;1723239;82;21118;-82
2020/12/06 08:54:02;;;;;;;3.98;3.37;;;;;;;11.44;59.77;95934.34;1726283;81;21222;-83
2020/12/06 08:56:32;;;;;;;4.25;2.92;;;;;;;11.47;59.58;95939.64;1733297;81;21309;-82
2020/12/06 08:59:14;;;;;;;3.52;2.70;;;;;;;11.51;59.36;95927.83;1719692;82;21226;-82
2020/12/06 09:01:50;;;;;;;3.12;2.77;;;;;;;11.52;59.07;95921.63;1702841;83;21244;-83
2020/12/06 09:04:17;;;;;;;4.78;3.30;;;;;;;11.57;59.71;95920.55;1661485;85;21178;-83
2020/12/06 09:06:44;;;;;;;6.00;3.60;;;;;;;11.59;59.56;95932.36;1731614;81;21147;-82
2020/12/06 09:09:10;;;;;;;3.45;2.72;;;;;;;11.63;57.89;95922.34;1719783;81;21476;-82
2020/12/06 09:11:36;;;;;;;3.58;3.17;;;;;;;11.73;57.89;95925.37;1722515;82;21261;-83
2020/12/06 09:14:02;;;;;;;4.17;3.10;;;;;;;11.80;58.76;95900.16;1711097;81;21340;-83
2020/12/06 09:16:28;;;;;;;2.92;2.27;;;;;;;11.82;58.94;95909.87;1715347;82;21848;-82
2020/12/06 09:18:54;;;;;;;3.92;3.22;;;;;;;11.81;58.50;95904.36;1727168;81;21110;-84
2020/12/06 09:21:21;;;;;;;4.15;2.95;;;;;;;11.82;58.98;95908.56;1722290;82;21118;-84
2020/12/06 09:23:48;;;;;;;26.27;17.15;;;;;;;11.85;58.97;95922.47;1719437;81;21099;-83
2020/12/06 09:26:14;;;;;;;16.45;11.30;;;;;;;11.85;59.13;95919.88;1718908;81;21111;-83
2020/12/06 09:28:42;;;;;;;5.78;4.40;;;;;;;11.87;59.08;95911.86;1713765;81;21126;-83
2020/12/06 09:31:09;;;;;;;3.85;3.00;;;;;;;11.86;58.65;95912.36;1732023;81;21118;-84
2020/12/06 09:33:36;;;;;;;3.62;2.62;;;;;;;11.88;58.71;95910.38;1720391;81;21135;-84
2020/12/06 09:36:02;;;;;;;4.92;3.42;;;;;;;11.87;58.57;95905.35;1722677;80;21132;-84
2020/12/06 09:38:28;;;;;;;4.10;3.70;;;;;;;11.90;58.22;95899.27;1731455;80;21500;-85
2020/12/06 09:40:54;;;;;;;3.90;3.22;;;;;;;11.90;58.65;95906.27;1744577;82;21086;-84
2020/12/06 09:43:21;;;;;;;5.58;3.75;;;;;;;11.87;57.47;95893.63;1725512;80;21125;-84
2020/12/06 09:45:47;;;;;;;3.92;3.00;;;;;;;11.87;58.36;95887.13;1724541;82;21105;-84
2020/12/06 09:48:13;;;;;;;4.60;3.35;;;;;;;11.85;58.60;95886.03;1747467;80;21304;-84
2020/12/06 09:50:39;;;;;;;4.20;3.42;;;;;;;11.83;57.85;95876.33;1754701;80;21086;-84
2020/12/06 09:53:05;;;;;;;3.00;2.37;;;;;;;11.87;58.39;95880.63;1754567;80;21107;-84
2020/12/06 09:55:31;;;;;;;4.47;3.72;;;;;;;11.86;58.31;95887.63;1760813;80;21074;-84
2020/12/06 09:57:57;;;;;;;5.55;3.52;;;;;;;11.88;58.64;95866.62;1735795;82;21148;-85
2020/12/06 10:00:24;;;;;;;5.22;3.52;;;;;;;11.88;58.46;95874.44;1741183;81;21377;-84
2020/12/06 10:02:50;;;;;;;5.12;4.25;;;;;;;11.90;58.74;95871.13;1737468;80;21075;-84
2020/12/06 10:05:16;;;;;;;6.03;4.10;;;;;;;11.89;58.67;95870.33;1750025;80;21114;-84
2020/12/06 10:07:42;;;;;;;5.30;3.70;;;;;;;11.88;57.28;95873.94;1742480;80;21090;-84
2020/12/06 10:10:08;;;;;;;4.72;3.55;;;;;;;11.97;57.94;95851.88;1755595;80;21256;-84
2020/12/06 10:12:35;;;;;;;5.12;3.75;;;;;;;12.01;57.82;95873.09;1733478;81;21142;-84
2020/12/06 10:15:03;;;;;;;5.95;4.28;;;;;;;12.03;57.87;95865.38;1736962;82;21130;-83
2020/12/06 10:17:29;;;;;;;4.50;3.47;;;;;;;12.06;57.99;95866.00;1682239;84;21177;-84
2020/12/06 10:19:55;;;;;;;5.08;3.67;;;;;;;12.08;57.77;95873.11;1726992;82;21090;-84
2020/12/06 10:22:21;;;;;;;6.30;4.28;;;;;;;12.05;58.35;95868.31;1751619;81;21333;-84
2020/12/06 10:24:47;;;;;;;6.50;4.60;;;;;;;12.03;57.84;95864.58;1738696;80;21228;-84
2020/12/06 10:27:13;;;;;;;6.10;4.87;;;;;;;12.00;58.30;95849.37;1728022;80;21121;-83
2020/12/06 10:29:39;;;;;;;5.28;3.83;;;;;;;11.98;58.66;95857.89;1724362;80;21102;-83
2020/12/06 10:32:06;;;;;;;6.47;4.75;;;;;;;11.96;58.72;95841.17;1742748;82;21325;-84
2020/12/06 10:34:32;;;;;;;6.15;5.03;;;;;;;11.93;58.43;95842.08;1699339;82;21447;-84
2020/12/06 10:36:58;;;;;;;7.53;5.17;;;;;;;11.97;59.19;95831.55;1711023;82;21094;-84
2020/12/06 10:39:25;;;;;;;7.90;6.05;;;;;;;12.00;58.88;95844.16;1743564;81;21413;-85
2020/12/06 10:41:55;;;;;;;8.85;6.45;;;;;;;12.06;57.89;95823.03;1724095;81;21297;-85
2020/12/06 10:48:38;;;;;;;7.35;4.50;;;;;;;12.24;57.65;95820.08;1666215;82;21480;-83
2020/12/06 10:51:04;;;;;;;6.30;4.72;;;;;;;12.21;57.55;95804.86;1732222;82;21122;-82
2020/12/06 10:53:30;;;;;;;6.12;4.65;;;;;;;12.51;57.37;95822.56;1726214;81;21110;-83
2020/12/06 10:55:56;;;;;;;7.35;5.60;;;;;;;12.57;56.19;95823.05;1728857;81;21220;-85
2020/12/06 10:58:22;;;;;;;24.15;19.70;;;;;;;12.62;57.00;95818.81;1718613;81;21098;-85
2020/12/06 11:00:49;;;;;;;11.28;9.23;;;;;;;12.68;56.54;95817.17;1720366;82;21075;-85
2020/12/06 11:03:15;;;;;;;26.57;19.98;;;;;;;12.74;56.41;95807.23;1741209;81;21063;-84
2020/12/06 11:05:41;;;;;;;16.23;11.75;;;;;;;12.79;56.25;95809.20;1718876;81;21123;-85
2020/12/06 11:11:54;;;;;;;6.78;4.78;;;;;;;12.82;57.24;95799.66;1701871;81;21213;-83
2020/12/06 11:14:20;;;;;;;7.40;4.87;;;;;;;12.79;56.62;95803.48;1727961;82;21234;-83
2020/12/06 11:16:51;;;;;;;10.60;4.87;;;;;;;12.77;56.98;95804.20;1711718;82;21115;-82
2020/12/06 11:19:18;;;;;;;17.20;12.77;;;;;;;12.72;56.19;95801.94;1737404;81;21063;-85
2020/12/06 11:21:44;;;;;;;6.85;5.20;;;;;;;12.60;56.22;95807.80;1740750;82;21534;-85
2020/12/06 11:24:10;;;;;;;6.10;4.92;;;;;;;12.71;56.48;95799.83;1738965;81;21108;-86
2020/12/06 11:26:36;;;;;;;7.78;5.35;;;;;;;12.75;56.42;95801.52;1718812;81;21134;-85
2020/12/06 11:29:02;;;;;;;5.92;4.60;;;;;;;12.77;54.57;95804.70;1722231;82;21071;-84
2020/12/06 11:31:28;;;;;;;63.23;55.80;;;;;;;12.78;54.24;95795.88;1721574;81;21115;-84
2020/12/06 11:33:54;;;;;;;10.30;9.20;;;;;;;12.75;55.94;95790.58;1731661;81;21368;-84
2020/12/06 11:36:20;;;;;;;6.08;5.30;;;;;;;12.72;55.97;95794.91;1750609;81;21229;-83
2020/12/06 11:38:46;;;;;;;4.62;4.08;;;;;;;12.67;55.56;95796.02;1733194;80;21321;-83
2020/12/06 11:41:12;;;;;;;6.22;4.33;;;;;;;12.60;56.18;95785.64;1724480;82;21388;-83
2020/12/06 11:43:38;;;;;;;4.58;3.70;;;;;;;12.54;56.46;95799.52;1694448;83;21122;-84
2020/12/06 11:46:05;;;;;;;6.85;4.67;;;;;;;12.51;56.45;95792.59;1724314;82;21114;-84
2020/12/06 11:48:30;;;;;;;7.37;5.22;;;;;;;12.49;56.80;95783.69;1735906;82;21106;-85